sensor_id;sensor_type;location;lat;lon;timestamp;pressure;altitude;pressure_sealevel;temperature;humidity
53340;BME280;46212;50.258;19.062;2023-04-04T00:01:03;99213.03;;;-0.34;72.06
53340;BME280;46212;50.258;19.062;2023-04-04T00:03:29;99209.72;;;-0.50;72.21
53340;BME280;46212;50.258;19.062;2023-04-04T00:05:55;99201.34;;;-0.42;72.79
53340;BME280;46212;50.258;19.062;2023-04-04T00:08:20;99208.84;;;-0.32;72.06
53340;BME280;46212;50.258;19.062;2023-04-04T00:10:46;99212.25;;;-0.35;72.35
53340;BME280;46212;50.258;19.062;2023-04-04T00:13:11;99208.72;;;-0.39;72.49
53340;BME280;46212;50.258;19.062;2023-04-04T00:15:37;99204.44;;;-0.40;72.47
53340;BME280;46212;50.258;19.062;2023-04-04T00:18:02;99199.34;;;-0.45;72.43
53340;BME280;46212;50.258;19.062;2023-04-04T00:20:29;99194.22;;;-0.50;72.79
53340;BME280;46212;50.258;19.062;2023-04-04T00:22:55;99192.00;;;-0.44;72.57
53340;BME280;46212;50.258;19.062;2023-04-04T00:25:20;99192.31;;;-0.49;72.86
53340;BME280;46212;50.258;19.062;2023-04-04T00:27:47;99191.41;;;-0.61;73.30
53340;BME280;46212;50.258;19.062;2023-04-04T00:30:12;99196.09;;;-0.58;73.33
53340;BME280;46212;50.258;19.062;2023-04-04T00:32:38;99189.00;;;-0.66;73.28
53340;BME280;46212;50.258;19.062;2023-04-04T00:35:03;99196.38;;;-0.63;73.22
53340;BME280;46212;50.258;19.062;2023-04-04T00:37:29;99195.31;;;-0.58;72.94
53340;BME280;46212;50.258;19.062;2023-04-04T00:39:54;99191.41;;;-0.61;73.33
53340;BME280;46212;50.258;19.062;2023-04-04T00:42:20;99194.06;;;-0.64;73.31
53340;BME280;46212;50.258;19.062;2023-04-04T00:44:46;99198.00;;;-0.58;72.92
53340;BME280;46212;50.258;19.062;2023-04-04T00:47:12;99202.25;;;-0.61;73.13
53340;BME280;46212;50.258;19.062;2023-04-04T00:49:37;99202.19;;;-0.64;73.07
53340;BME280;46212;50.258;19.062;2023-04-04T00:52:03;99198.75;;;-0.61;72.90
53340;BME280;46212;50.258;19.062;2023-04-04T00:54:31;99194.78;;;-0.67;73.13
53340;BME280;46212;50.258;19.062;2023-04-04T00:56:56;99197.44;;;-0.71;73.49
53340;BME280;46212;50.258;19.062;2023-04-04T00:59:24;99196.22;;;-0.77;73.40
53340;BME280;46212;50.258;19.062;2023-04-04T01:01:50;99209.84;;;-0.70;73.37
53340;BME280;46212;50.258;19.062;2023-04-04T01:04:15;99200.06;;;-0.78;73.45
53340;BME280;46212;50.258;19.062;2023-04-04T01:06:41;99206.94;;;-0.84;73.76
53340;BME280;46212;50.258;19.062;2023-04-04T01:09:08;99196.72;;;-0.94;74.05
53340;BME280;46212;50.258;19.062;2023-04-04T01:11:34;99203.81;;;-0.86;74.18
53340;BME280;46212;50.258;19.062;2023-04-04T01:14:00;99206.88;;;-0.87;73.81
53340;BME280;46212;50.258;19.062;2023-04-04T01:16:25;99206.47;;;-0.89;73.98
53340;BME280;46212;50.258;19.062;2023-04-04T01:18:52;99191.69;;;-0.95;73.62
53340;BME280;46212;50.258;19.062;2023-04-04T01:21:18;99202.09;;;-0.97;74.00
53340;BME280;46212;50.258;19.062;2023-04-04T01:24:01;99205.84;;;-1.05;74.54
53340;BME280;46212;50.258;19.062;2023-04-04T01:26:28;99192.59;;;-1.11;74.46
53340;BME280;46212;50.258;19.062;2023-04-04T01:28:55;99205.13;;;-1.02;74.27
53340;BME280;46212;50.258;19.062;2023-04-04T01:31:47;99202.03;;;-1.01;74.21
53340;BME280;46212;50.258;19.062;2023-04-04T01:34:42;99196.53;;;-1.04;74.04
53340;BME280;46212;50.258;19.062;2023-04-04T01:37:35;99205.38;;;-1.11;74.43
53340;BME280;46212;50.258;19.062;2023-04-04T01:40:10;99206.72;;;-1.24;75.00
53340;BME280;46212;50.258;19.062;2023-04-04T01:42:37;99208.63;;;-1.25;75.04
53340;BME280;46212;50.258;19.062;2023-04-04T01:45:04;99210.88;;;-1.30;75.37
53340;BME280;46212;50.258;19.062;2023-04-04T01:47:40;99220.66;;;-1.22;75.01
53340;BME280;46212;50.258;19.062;2023-04-04T01:50:07;99212.53;;;-1.22;74.89
53340;BME280;46212;50.258;19.062;2023-04-04T01:52:33;99216.31;;;-1.27;75.04
53340;BME280;46212;50.258;19.062;2023-04-04T01:54:58;99207.31;;;-1.34;75.52
53340;BME280;46212;50.258;19.062;2023-04-04T01:57:24;99207.78;;;-1.29;75.41
53340;BME280;46212;50.258;19.062;2023-04-04T01:59:49;99210.44;;;-1.32;74.99
53340;BME280;46212;50.258;19.062;2023-04-04T02:02:15;99219.47;;;-1.25;75.17
53340;BME280;46212;50.258;19.062;2023-04-04T02:04:40;99219.09;;;-1.23;75.04
53340;BME280;46212;50.258;19.062;2023-04-04T02:07:06;99210.81;;;-1.34;75.04
53340;BME280;46212;50.258;19.062;2023-04-04T02:09:32;99213.22;;;-1.29;75.44
53340;BME280;46212;50.258;19.062;2023-04-04T02:11:58;99213.22;;;-1.29;75.04
53340;BME280;46212;50.258;19.062;2023-04-04T02:14:24;99215.97;;;-1.25;75.09
53340;BME280;46212;50.258;19.062;2023-04-04T02:16:49;99215.78;;;-1.36;75.52
53340;BME280;46212;50.258;19.062;2023-04-04T02:19:15;99211.88;;;-1.38;75.21
53340;BME280;46212;50.258;19.062;2023-04-04T02:21:40;99215.31;;;-1.41;75.18
53340;BME280;46212;50.258;19.062;2023-04-04T02:24:06;99220.59;;;-1.48;75.75
53340;BME280;46212;50.258;19.062;2023-04-04T02:26:31;99223.44;;;-1.64;76.20
53340;BME280;46212;50.258;19.062;2023-04-04T02:28:56;99216.88;;;-1.63;76.46
53340;BME280;46212;50.258;19.062;2023-04-04T02:31:22;99217.00;;;-1.56;76.30
53340;BME280;46212;50.258;19.062;2023-04-04T02:33:47;99220.31;;;-1.66;76.25
53340;BME280;46212;50.258;19.062;2023-04-04T02:36:13;99214.78;;;-1.50;75.89
53340;BME280;46212;50.258;19.062;2023-04-04T02:38:38;99209.75;;;-1.71;76.22
53340;BME280;46212;50.258;19.062;2023-04-04T02:41:04;99219.19;;;-1.65;76.64
53340;BME280;46212;50.258;19.062;2023-04-04T02:43:29;99223.34;;;-1.68;76.34
53340;BME280;46212;50.258;19.062;2023-04-04T02:45:54;99224.53;;;-1.69;76.71
53340;BME280;46212;50.258;19.062;2023-04-04T02:48:20;99220.03;;;-1.80;76.52
53340;BME280;46212;50.258;19.062;2023-04-04T02:50:46;99219.69;;;-1.79;76.98
53340;BME280;46212;50.258;19.062;2023-04-04T02:53:14;99219.44;;;-1.70;76.52
53340;BME280;46212;50.258;19.062;2023-04-04T02:55:39;99218.91;;;-1.79;76.54
53340;BME280;46212;50.258;19.062;2023-04-04T02:58:05;99215.69;;;-1.66;76.65
53340;BME280;46212;50.258;19.062;2023-04-04T03:00:30;99221.59;;;-1.79;76.89
53340;BME280;46212;50.258;19.062;2023-04-04T03:02:56;99217.66;;;-1.63;76.64
53340;BME280;46212;50.258;19.062;2023-04-04T03:05:25;99213.84;;;-1.58;75.98
53340;BME280;46212;50.258;19.062;2023-04-04T03:07:56;99224.34;;;-1.56;76.49
53340;BME280;46212;50.258;19.062;2023-04-04T03:10:22;99216.75;;;-1.47;75.72
53340;BME280;46212;50.258;19.062;2023-04-04T03:12:48;99220.25;;;-1.47;75.20
53340;BME280;46212;50.258;19.062;2023-04-04T03:15:14;99217.56;;;-1.47;75.61
53340;BME280;46212;50.258;19.062;2023-04-04T03:17:39;99209.22;;;-1.57;76.03
53340;BME280;46212;50.258;19.062;2023-04-04T03:20:05;99215.97;;;-1.71;76.12
53340;BME280;46212;50.258;19.062;2023-04-04T03:22:31;99220.19;;;-1.50;75.85
53340;BME280;46212;50.258;19.062;2023-04-04T03:24:56;99221.34;;;-1.51;75.53
53340;BME280;46212;50.258;19.062;2023-04-04T03:27:22;99214.78;;;-1.50;75.26
53340;BME280;46212;50.258;19.062;2023-04-04T03:29:47;99217.28;;;-1.61;75.59
53340;BME280;46212;50.258;19.062;2023-04-04T03:32:13;99218.06;;;-1.61;75.95
53340;BME280;46212;50.258;19.062;2023-04-04T03:34:38;99216.03;;;-1.44;75.58
53340;BME280;46212;50.258;19.062;2023-04-04T03:37:03;99219.94;;;-1.42;74.82
53340;BME280;46212;50.258;19.062;2023-04-04T03:39:29;99216.50;;;-1.39;75.03
53340;BME280;46212;50.258;19.062;2023-04-04T03:41:57;99212.25;;;-1.40;74.91
53340;BME280;46212;50.258;19.062;2023-04-04T03:44:23;99210.69;;;-1.41;74.95
53340;BME280;46212;50.258;19.062;2023-04-04T03:46:48;99202.81;;;-1.49;74.82
53340;BME280;46212;50.258;19.062;2023-04-04T03:49:14;99212.41;;;-1.52;75.38
53340;BME280;46212;50.258;19.062;2023-04-04T03:51:40;99214.31;;;-1.56;75.98
53340;BME280;46212;50.258;19.062;2023-04-04T03:54:05;99223.44;;;-1.64;75.80
53340;BME280;46212;50.258;19.062;2023-04-04T03:56:31;99211.59;;;-1.56;76.23
53340;BME280;46212;50.258;19.062;2023-04-04T03:58:57;99208.31;;;-1.42;75.27
53340;BME280;46212;50.258;19.062;2023-04-04T04:01:22;99208.44;;;-1.35;74.70
53340;BME280;46212;50.258;19.062;2023-04-04T04:03:48;99205.38;;;-1.56;74.88
53340;BME280;46212;50.258;19.062;2023-04-04T04:06:13;99203.75;;;-1.61;75.29
53340;BME280;46212;50.258;19.062;2023-04-04T04:08:39;99204.91;;;-1.62;75.11
53340;BME280;46212;50.258;19.062;2023-04-04T04:11:05;99205.97;;;-1.67;75.60
53340;BME280;46212;50.258;19.062;2023-04-04T04:13:30;99210.19;;;-1.69;75.60
53340;BME280;46212;50.258;19.062;2023-04-04T04:15:56;99196.19;;;-1.75;75.96
53340;BME280;46212;50.258;19.062;2023-04-04T04:18:22;99211.84;;;-1.84;76.14
53340;BME280;46212;50.258;19.062;2023-04-04T04:20:47;99199.81;;;-1.86;76.29
53340;BME280;46212;50.258;19.062;2023-04-04T04:23:12;99193.34;;;-1.82;76.36
53340;BME280;46212;50.258;19.062;2023-04-04T04:25:38;99192.53;;;-1.82;76.05
53340;BME280;46212;50.258;19.062;2023-04-04T04:28:03;99190.50;;;-1.89;76.46
53340;BME280;46212;50.258;19.062;2023-04-04T04:30:29;99188.16;;;-1.90;76.91
53340;BME280;46212;50.258;19.062;2023-04-04T04:32:54;99194.88;;;-2.03;77.08
53340;BME280;46212;50.258;19.062;2023-04-04T04:35:20;99191.13;;;-1.95;76.97
53340;BME280;46212;50.258;19.062;2023-04-04T04:37:45;99194.72;;;-2.10;77.56
53340;BME280;46212;50.258;19.062;2023-04-04T04:40:11;99188.59;;;-2.07;77.13
53340;BME280;46212;50.258;19.062;2023-04-04T04:42:43;99200.63;;;-2.05;77.93
53340;BME280;46212;50.258;19.062;2023-04-04T04:45:09;99198.41;;;-1.99;77.68
53340;BME280;46212;50.258;19.062;2023-04-04T04:47:35;99193.56;;;-1.90;76.77
53340;BME280;46212;50.258;19.062;2023-04-04T04:50:01;99203.25;;;-1.89;76.52
53340;BME280;46212;50.258;19.062;2023-04-04T04:52:27;99191.34;;;-1.85;77.22
53340;BME280;46212;50.258;19.062;2023-04-04T04:54:55;99199.38;;;-1.69;76.37
53340;BME280;46212;50.258;19.062;2023-04-04T04:57:21;99203.94;;;-1.73;76.68
53340;BME280;46212;50.258;19.062;2023-04-04T04:59:47;99208.38;;;-1.62;75.78
53340;BME280;46212;50.258;19.062;2023-04-04T05:02:13;99203.13;;;-1.74;75.40
53340;BME280;46212;50.258;19.062;2023-04-04T05:04:38;99206.47;;;-1.61;75.41
53340;BME280;46212;50.258;19.062;2023-04-04T05:07:05;99205.00;;;-1.55;75.43
53340;BME280;46212;50.258;19.062;2023-04-04T05:09:32;99207.06;;;-1.48;75.17
53340;BME280;46212;50.258;19.062;2023-04-04T05:11:57;99219.13;;;-1.46;74.49
53340;BME280;46212;50.258;19.062;2023-04-04T05:14:23;99212.41;;;-1.52;74.39
53340;BME280;46212;50.258;19.062;2023-04-04T05:16:48;99213.94;;;-1.54;74.99
53340;BME280;46212;50.258;19.062;2023-04-04T05:19:13;99208.16;;;-1.53;74.70
53340;BME280;46212;50.258;19.062;2023-04-04T05:21:39;99218.41;;;-1.43;74.04
53340;BME280;46212;50.258;19.062;2023-04-04T05:24:05;99212.91;;;-1.46;73.97
53340;BME280;46212;50.258;19.062;2023-04-04T05:26:30;99225.44;;;-1.38;73.44
53340;BME280;46212;50.258;19.062;2023-04-04T05:28:56;99223.09;;;-1.40;73.54
53340;BME280;46212;50.258;19.062;2023-04-04T05:31:23;99221.53;;;-1.41;72.91
53340;BME280;46212;50.258;19.062;2023-04-04T05:33:48;99221.53;;;-1.41;73.37
53340;BME280;46212;50.258;19.062;2023-04-04T05:36:14;99223.84;;;-1.39;73.89
53340;BME280;46212;50.258;19.062;2023-04-04T05:38:40;99211.03;;;-1.20;72.78
53340;BME280;46212;50.258;19.062;2023-04-04T05:41:05;99221.53;;;-1.18;72.11
53340;BME280;46212;50.258;19.062;2023-04-04T05:43:31;99222.19;;;-1.25;72.08
53340;BME280;46212;50.258;19.062;2023-04-04T05:45:56;99226.44;;;-1.24;72.12
53340;BME280;46212;50.258;19.062;2023-04-04T05:48:22;99228.50;;;-1.17;71.83
53340;BME280;46212;50.258;19.062;2023-04-04T05:50:47;99217.78;;;-1.33;71.81
53340;BME280;46212;50.258;19.062;2023-04-04T05:53:13;99228.06;;;-1.19;72.06
53340;BME280;46212;50.258;19.062;2023-04-04T05:55:38;99219.69;;;-1.11;71.47
53340;BME280;46212;50.258;19.062;2023-04-04T05:58:03;99223.31;;;-1.03;71.47
53340;BME280;46212;50.258;19.062;2023-04-04T06:00:29;99218.78;;;-0.95;71.26
53340;BME280;46212;50.258;19.062;2023-04-04T06:02:58;99232.81;;;-0.90;70.62
53340;BME280;46212;50.258;19.062;2023-04-04T06:05:23;99226.00;;;-1.03;70.90
53340;BME280;46212;50.258;19.062;2023-04-04T06:07:49;99227.31;;;-0.93;70.57
53340;BME280;46212;50.258;19.062;2023-04-04T06:10:15;99223.72;;;-1.01;69.46
53340;BME280;46212;50.258;19.062;2023-04-04T06:12:40;99228.84;;;-0.96;70.44
53340;BME280;46212;50.258;19.062;2023-04-04T06:15:06;99232.03;;;-0.90;70.12
53340;BME280;46212;50.258;19.062;2023-04-04T06:17:32;99229.38;;;-0.87;69.67
53340;BME280;46212;50.258;19.062;2023-04-04T06:19:57;99230.56;;;-0.84;69.42
53340;BME280;46212;50.258;19.062;2023-04-04T06:22:23;99227.78;;;-0.88;69.00
53340;BME280;46212;50.258;19.062;2023-04-04T06:24:48;99226.91;;;-0.95;68.96
53340;BME280;46212;50.258;19.062;2023-04-04T06:27:14;99221.53;;;-0.92;68.90
53340;BME280;46212;50.258;19.062;2023-04-04T06:29:40;99231.22;;;-0.91;68.83
53340;BME280;46212;50.258;19.062;2023-04-04T06:32:05;99227.84;;;-0.84;68.20
53340;BME280;46212;50.258;19.062;2023-04-04T06:34:31;99232.53;;;-0.81;68.14
53340;BME280;46212;50.258;19.062;2023-04-04T06:36:56;99228.31;;;-0.79;68.24
53340;BME280;46212;50.258;19.062;2023-04-04T06:39:22;99227.19;;;-0.78;68.00
53340;BME280;46212;50.258;19.062;2023-04-04T06:41:47;99224.25;;;-0.66;67.71
53340;BME280;46212;50.258;19.062;2023-04-04T06:44:13;99216.09;;;-0.66;67.05
53340;BME280;46212;50.258;19.062;2023-04-04T06:46:38;99217.00;;;-0.58;66.45
53340;BME280;46212;50.258;19.062;2023-04-04T06:49:04;99211.69;;;-0.47;66.21
53340;BME280;46212;50.258;19.062;2023-04-04T06:51:32;99224.97;;;-0.42;65.31
53340;BME280;46212;50.258;19.062;2023-04-04T06:53:59;99217.56;;;-0.45;64.72
53340;BME280;46212;50.258;19.062;2023-04-04T06:56:25;99218.81;;;-0.39;64.19
53340;BME280;46212;50.258;19.062;2023-04-04T06:58:51;99219.31;;;-0.30;64.32
53340;BME280;46212;50.258;19.062;2023-04-04T07:01:17;99213.38;;;-0.10;63.89
53340;BME280;46212;50.258;19.062;2023-04-04T07:03:42;99212.34;;;0.02;63.65
53340;BME280;46212;50.258;19.062;2023-04-04T07:06:09;99224.13;;;0.17;63.44
53340;BME280;46212;50.258;19.062;2023-04-04T07:08:35;99218.38;;;0.22;63.06
53340;BME280;46212;50.258;19.062;2023-04-04T07:11:01;99214.97;;;0.32;62.53
53340;BME280;46212;50.258;19.062;2023-04-04T07:13:26;99216.22;;;0.41;61.99
53340;BME280;46212;50.258;19.062;2023-04-04T07:15:52;99218.63;;;0.46;61.41
53340;BME280;46212;50.258;19.062;2023-04-04T07:18:18;99209.00;;;0.56;61.61
53340;BME280;46212;50.258;19.062;2023-04-04T07:20:45;99211.78;;;0.60;60.07
53340;BME280;46212;50.258;19.062;2023-04-04T07:23:10;99223.38;;;0.57;59.69
53340;BME280;46212;50.258;19.062;2023-04-04T07:25:39;99216.03;;;0.61;60.15
53340;BME280;46212;50.258;19.062;2023-04-04T07:28:04;99202.53;;;0.71;60.34
53340;BME280;46212;50.258;19.062;2023-04-04T07:30:30;99211.59;;;0.86;59.84
53340;BME280;46212;50.258;19.062;2023-04-04T07:33:00;99210.94;;;0.99;59.54
53340;BME280;46212;50.258;19.062;2023-04-04T07:35:25;99209.06;;;1.11;59.30
53340;BME280;46212;50.258;19.062;2023-04-04T07:37:51;99208.56;;;0.94;57.98
53340;BME280;46212;50.258;19.062;2023-04-04T07:40:17;99209.34;;;0.95;58.21
53340;BME280;46212;50.258;19.062;2023-04-04T07:42:44;99208.13;;;0.89;58.07
53340;BME280;46212;50.258;19.062;2023-04-04T07:45:11;99214.78;;;0.98;58.02
53340;BME280;46212;50.258;19.062;2023-04-04T07:47:36;99222.19;;;0.98;58.26
53340;BME280;46212;50.258;19.062;2023-04-04T07:50:02;99200.78;;;0.93;57.99
53340;BME280;46212;50.258;19.062;2023-04-04T07:52:28;99211.78;;;1.07;56.97
53340;BME280;46212;50.258;19.062;2023-04-04T07:54:54;99213.31;;;1.04;57.33
53340;BME280;46212;50.258;19.062;2023-04-04T07:57:19;99202.53;;;1.22;57.49
53340;BME280;46212;50.258;19.062;2023-04-04T07:59:45;99209.25;;;1.35;56.72
53340;BME280;46212;50.258;19.062;2023-04-04T08:02:11;99204.69;;;1.57;58.44
53340;BME280;46212;50.258;19.062;2023-04-04T08:04:37;99209.06;;;1.76;55.95
53340;BME280;46212;50.258;19.062;2023-04-04T08:07:02;99212.59;;;1.80;55.54
53340;BME280;46212;50.258;19.062;2023-04-04T08:09:27;99197.44;;;1.86;54.62
53340;BME280;46212;50.258;19.062;2023-04-04T08:11:59;99205.22;;;1.87;54.44
53340;BME280;46212;50.258;19.062;2023-04-04T08:14:26;99202.06;;;1.78;53.54
53340;BME280;46212;50.258;19.062;2023-04-04T08:16:51;99206.78;;;1.88;53.80
53340;BME280;46212;50.258;19.062;2023-04-04T08:19:17;99194.31;;;1.80;53.55
53340;BME280;46212;50.258;19.062;2023-04-04T08:21:43;99197.28;;;1.54;54.73
53340;BME280;46212;50.258;19.062;2023-04-04T08:24:08;99206.63;;;1.56;54.16
53340;BME280;46212;50.258;19.062;2023-04-04T08:26:34;99198.13;;;1.62;53.19
53340;BME280;46212;50.258;19.062;2023-04-04T08:28:59;99197.41;;;1.79;53.90
53340;BME280;46212;50.258;19.062;2023-04-04T08:31:26;99199.81;;;1.98;51.84
53340;BME280;46212;50.258;19.062;2023-04-04T08:33:52;99196.81;;;2.38;53.29
53340;BME280;46212;50.258;19.062;2023-04-04T08:36:18;99199.59;;;2.63;50.19
53340;BME280;46212;50.258;19.062;2023-04-04T08:38:43;99191.00;;;2.86;49.27
53340;BME280;46212;50.258;19.062;2023-04-04T08:41:10;99189.81;;;3.11;49.61
53340;BME280;46212;50.258;19.062;2023-04-04T08:43:38;99183.94;;;3.31;49.21
53340;BME280;46212;50.258;19.062;2023-04-04T08:46:06;99183.97;;;3.20;49.17
53340;BME280;46212;50.258;19.062;2023-04-04T08:48:34;99179.69;;;3.19;48.92
53340;BME280;46212;50.258;19.062;2023-04-04T08:51:02;99178.94;;;3.01;47.80
53340;BME280;46212;50.258;19.062;2023-04-04T08:53:29;99171.50;;;2.69;48.37
53340;BME280;46212;50.258;19.062;2023-04-04T08:55:58;99171.94;;;2.79;49.84
53340;BME280;46212;50.258;19.062;2023-04-04T08:58:24;99177.38;;;2.64;49.47
53340;BME280;46212;50.258;19.062;2023-04-04T09:00:54;99180.09;;;2.68;49.69
53340;BME280;46212;50.258;19.062;2023-04-04T09:03:24;99180.50;;;2.56;50.05
53340;BME280;46212;50.258;19.062;2023-04-04T09:05:51;99182.81;;;2.43;49.53
53340;BME280;46212;50.258;19.062;2023-04-04T09:08:17;99177.72;;;2.35;49.40
53340;BME280;46212;50.258;19.062;2023-04-04T09:10:43;99171.88;;;2.36;49.32
53340;BME280;46212;50.258;19.062;2023-04-04T09:13:09;99162.16;;;2.25;49.71
53340;BME280;46212;50.258;19.062;2023-04-04T09:15:37;99171.13;;;2.46;48.71
53340;BME280;46212;50.258;19.062;2023-04-04T09:18:03;99165.69;;;2.53;49.09
53340;BME280;46212;50.258;19.062;2023-04-04T09:22:57;99159.06;;;2.93;49.05
53340;BME280;46212;50.258;19.062;2023-04-04T09:25:22;99172.66;;;3.18;45.25
53340;BME280;46212;50.258;19.062;2023-04-04T09:27:48;99166.78;;;3.37;45.17
53340;BME280;46212;50.258;19.062;2023-04-04T09:30:14;99176.16;;;3.26;45.00
53340;BME280;46212;50.258;19.062;2023-04-04T09:32:40;99172.25;;;3.30;45.31
53340;BME280;46212;50.258;19.062;2023-04-04T09:35:06;99171.50;;;3.26;44.51
53340;BME280;46212;50.258;19.062;2023-04-04T09:37:31;99175.38;;;3.39;44.89
53340;BME280;46212;50.258;19.062;2023-04-04T09:39:57;99173.00;;;3.38;43.92
53340;BME280;46212;50.258;19.062;2023-04-04T09:42:23;99181.94;;;3.52;43.96
53340;BME280;46212;50.258;19.062;2023-04-04T09:44:53;99172.28;;;3.23;43.68
53340;BME280;46212;50.258;19.062;2023-04-04T09:47:22;99173.03;;;3.27;44.39
53340;BME280;46212;50.258;19.062;2023-04-04T09:49:48;99170.28;;;3.31;45.35
53340;BME280;46212;50.258;19.062;2023-04-04T09:52:21;99174.97;;;3.41;45.05
53340;BME280;46212;50.258;19.062;2023-04-04T09:55:07;99167.53;;;3.48;45.06
53340;BME280;46212;50.258;19.062;2023-04-04T09:57:35;99165.91;;;3.65;46.15
53340;BME280;46212;50.258;19.062;2023-04-04T10:00:06;99170.94;;;3.77;44.22
53340;BME280;46212;50.258;19.062;2023-04-04T10:02:37;99170.56;;;3.71;44.34
53340;BME280;46212;50.258;19.062;2023-04-04T10:05:03;99172.13;;;3.76;44.29
53340;BME280;46212;50.258;19.062;2023-04-04T10:07:29;99168.59;;;3.75;43.58
53340;BME280;46212;50.258;19.062;2023-04-04T10:09:56;99163.13;;;3.83;43.27
53340;BME280;46212;50.258;19.062;2023-04-04T10:12:23;99166.97;;;3.92;42.32
53340;BME280;46212;50.258;19.062;2023-04-04T10:14:59;99157.59;;;3.93;42.16
53340;BME280;46212;50.258;19.062;2023-04-04T10:17:38;99155.56;;;4.08;41.99
53340;BME280;46212;50.258;19.062;2023-04-04T10:20:06;99158.75;;;3.99;42.55
53340;BME280;46212;50.258;19.062;2023-04-04T10:22:34;99164.94;;;4.07;43.46
53340;BME280;46212;50.258;19.062;2023-04-04T10:25:00;99164.19;;;4.03;43.97
53340;BME280;46212;50.258;19.062;2023-04-04T10:27:25;99160.25;;;4.07;44.15
53340;BME280;46212;50.258;19.062;2023-04-04T10:29:51;99156.25;;;4.22;44.77
53340;BME280;46212;50.258;19.062;2023-04-04T10:35:30;99142.06;;;3.80;44.73
53340;BME280;46212;50.258;19.062;2023-04-04T10:37:58;99145.47;;;3.98;45.16
53340;BME280;46212;50.258;19.062;2023-04-04T10:40:30;99147.00;;;4.06;44.15
53340;BME280;46212;50.258;19.062;2023-04-04T10:43:01;99157.88;;;4.16;43.37
53340;BME280;46212;50.258;19.062;2023-04-04T10:45:28;99154.13;;;3.89;43.27
53340;BME280;46212;50.258;19.062;2023-04-04T10:48:02;99155.63;;;3.97;43.37
53340;BME280;46212;50.258;19.062;2023-04-04T10:50:28;99160.28;;;4.04;43.89
53340;BME280;46212;50.258;19.062;2023-04-04T10:52:56;99154.72;;;4.21;43.52
53340;BME280;46212;50.258;19.062;2023-04-04T10:55:24;99152.06;;;4.66;42.74
53340;BME280;46212;50.258;19.062;2023-04-04T10:57:51;99149.50;;;4.93;41.07
53340;BME280;46212;50.258;19.062;2023-04-04T11:00:19;99140.22;;;5.20;40.13
53340;BME280;46212;50.258;19.062;2023-04-04T11:03:00;99141.78;;;5.21;39.26
53340;BME280;46212;50.258;19.062;2023-04-04T11:05:38;99132.59;;;5.42;39.44
53340;BME280;46212;50.258;19.062;2023-04-04T11:08:18;99142.69;;;5.08;40.85
53340;BME280;46212;50.258;19.062;2023-04-04T11:10:52;99140.91;;;4.91;41.56
53340;BME280;46212;50.258;19.062;2023-04-04T11:13:23;99146.72;;;4.96;41.29
53340;BME280;46212;50.258;19.062;2023-04-04T11:15:57;99140.66;;;5.19;40.59
53340;BME280;46212;50.258;19.062;2023-04-04T11:21:09;99141.84;;;4.73;41.43
53340;BME280;46212;50.258;19.062;2023-04-04T11:28:55;99141.03;;;4.76;43.22
53340;BME280;46212;50.258;19.062;2023-04-04T11:31:22;99133.94;;;4.82;42.14
53340;BME280;46212;50.258;19.062;2023-04-04T11:34:04;99139.03;;;4.84;41.29
53340;BME280;46212;50.258;19.062;2023-04-04T11:41:51;99121.31;;;5.33;39.91
53340;BME280;46212;50.258;19.062;2023-04-04T11:44:18;99107.03;;;5.49;40.10
53340;BME280;46212;50.258;19.062;2023-04-04T11:46:44;99112.28;;;5.36;41.54
53340;BME280;46212;50.258;19.062;2023-04-04T11:49:12;99116.22;;;5.35;42.61
53340;BME280;46212;50.258;19.062;2023-04-04T11:51:39;99115.22;;;4.77;42.61
53340;BME280;46212;50.258;19.062;2023-04-04T11:54:14;99118.50;;;4.58;42.73
53340;BME280;46212;50.258;19.062;2023-04-04T11:56:43;99119.31;;;4.55;42.69
53340;BME280;46212;50.258;19.062;2023-04-04T11:59:16;99125.38;;;4.77;42.68
53340;BME280;46212;50.258;19.062;2023-04-04T12:01:42;99115.78;;;4.58;42.64
53340;BME280;46212;50.258;19.062;2023-04-04T12:04:08;99113.78;;;5.07;42.48
53340;BME280;46212;50.258;19.062;2023-04-04T12:06:34;99116.16;;;5.01;42.57
53340;BME280;46212;50.258;19.062;2023-04-04T12:09:04;99129.69;;;5.19;42.34
53340;BME280;46212;50.258;19.062;2023-04-04T12:11:33;99112.69;;;5.34;42.67
53340;BME280;46212;50.258;19.062;2023-04-04T12:14:01;99113.44;;;5.01;43.36
53340;BME280;46212;50.258;19.062;2023-04-04T12:16:27;99130.88;;;5.18;44.06
53340;BME280;46212;50.258;19.062;2023-04-04T12:18:53;99130.28;;;5.00;42.67
53340;BME280;46212;50.258;19.062;2023-04-04T12:21:19;99126.91;;;4.85;43.92
53340;BME280;46212;50.258;19.062;2023-04-04T12:23:47;99113.78;;;5.07;43.02
53340;BME280;46212;50.258;19.062;2023-04-04T12:26:15;99123.44;;;5.18;42.53
53340;BME280;46212;50.258;19.062;2023-04-04T12:28:41;99117.53;;;4.79;42.56
53340;BME280;46212;50.258;19.062;2023-04-04T12:31:10;99135.81;;;4.41;42.75
53340;BME280;46212;50.258;19.062;2023-04-04T12:33:38;99128.53;;;4.27;44.25
53340;BME280;46212;50.258;19.062;2023-04-04T12:36:04;99111.78;;;5.11;43.10
53340;BME280;46212;50.258;19.062;2023-04-04T12:38:33;99108.72;;;6.03;42.45
53340;BME280;46212;50.258;19.062;2023-04-04T12:40:59;99116.97;;;6.80;38.74
53340;BME280;46212;50.258;19.062;2023-04-04T12:43:27;99125.41;;;6.43;39.07
53340;BME280;46212;50.258;19.062;2023-04-04T12:45:56;99121.28;;;6.31;39.32
53340;BME280;46212;50.258;19.062;2023-04-04T12:48:26;99128.63;;;6.11;39.65
53340;BME280;46212;50.258;19.062;2023-04-04T12:50:55;99133.34;;;5.43;40.75
53340;BME280;46212;50.258;19.062;2023-04-04T12:53:23;99130.47;;;5.19;41.27
53340;BME280;46212;50.258;19.062;2023-04-04T12:55:49;99135.53;;;4.80;42.31
53340;BME280;46212;50.258;19.062;2023-04-04T12:58:23;99130.88;;;4.73;43.27
53340;BME280;46212;50.258;19.062;2023-04-04T13:00:51;99132.50;;;4.67;42.98
53340;BME280;46212;50.258;19.062;2023-04-04T13:03:22;99134.69;;;4.39;42.86
53340;BME280;46212;50.258;19.062;2023-04-04T13:05:48;99143.81;;;4.18;44.24
53340;BME280;46212;50.258;19.062;2023-04-04T13:08:15;99133.06;;;3.83;43.30
53340;BME280;46212;50.258;19.062;2023-04-04T13:11:01;99132.25;;;3.89;44.91
53340;BME280;46212;50.258;19.062;2023-04-04T13:13:31;99142.00;;;3.90;45.17